createdAt,value
2022-07-26T00:00:32.305Z,3.88
2022-07-26T00:02:59.597Z,3.35
2022-07-26T00:05:26.961Z,3.63
2022-07-26T00:08:10.936Z,3.80
2022-07-26T00:13:11.400Z,3.58
2022-07-26T00:15:39.262Z,4.10
2022-07-26T00:18:08.085Z,2.90
2022-07-26T00:20:40.058Z,3.78
2022-07-26T00:23:09.420Z,3.42
2022-07-26T00:25:36.907Z,3.35
2022-07-26T00:28:05.034Z,3.95
2022-07-26T00:30:33.022Z,3.08
2022-07-26T00:33:00.783Z,3.80
2022-07-26T00:35:28.271Z,3.55
2022-07-26T00:37:55.666Z,3.33
2022-07-26T00:40:23.539Z,3.63
2022-07-26T00:42:51.288Z,3.97
2022-07-26T00:45:18.895Z,3.33
2022-07-26T00:47:46.311Z,3.55
2022-07-26T00:50:16.180Z,4.00
2022-07-26T00:52:44.904Z,3.65
2022-07-26T00:55:13.421Z,3.45
2022-07-26T00:57:41.459Z,3.78
2022-07-26T01:00:16.261Z,3.70
2022-07-26T01:02:44.554Z,3.80
2022-07-26T01:05:12.339Z,3.80
2022-07-26T01:07:41.136Z,3.92
2022-07-26T01:10:12.710Z,3.40
2022-07-26T01:12:44.097Z,3.30
2022-07-26T01:15:13.940Z,3.75
2022-07-26T01:17:42.139Z,3.50
2022-07-26T01:20:11.338Z,3.75
2022-07-26T01:22:39.342Z,3.70
2022-07-26T01:25:07.646Z,3.65
2022-07-26T01:27:39.540Z,4.13
2022-07-26T01:30:10.023Z,3.80
2022-07-26T01:32:37.698Z,3.53
2022-07-26T01:35:06.977Z,3.67
2022-07-26T01:37:34.277Z,3.72
2022-07-26T01:40:01.906Z,3.72
2022-07-26T01:42:29.197Z,3.58
2022-07-26T01:44:56.506Z,3.38
2022-07-26T01:47:23.843Z,4.05
2022-07-26T01:49:51.134Z,3.42
2022-07-26T01:52:19.067Z,3.90
2022-07-26T01:54:46.317Z,3.97
2022-07-26T01:57:13.641Z,3.90
2022-07-26T01:59:40.997Z,3.60
2022-07-26T02:02:08.310Z,3.63
2022-07-26T02:04:54.682Z,4.20
2022-07-26T02:07:21.925Z,3.88
2022-07-26T02:09:49.531Z,4.00
2022-07-26T02:12:16.847Z,4.53
2022-07-26T02:14:44.185Z,4.72
2022-07-26T02:17:11.448Z,5.30
2022-07-26T02:19:38.805Z,5.28
2022-07-26T02:22:06.234Z,5.22
2022-07-26T02:24:33.923Z,5.70
2022-07-26T02:27:02.222Z,6.30
2022-07-26T02:29:29.924Z,11.15
2022-07-26T02:31:57.739Z,9.10
2022-07-26T02:34:25.651Z,8.57
2022-07-26T02:36:53.145Z,9.38
2022-07-26T02:39:20.886Z,8.38
2022-07-26T02:41:49.313Z,8.80
2022-07-26T02:44:16.621Z,10.32
2022-07-26T02:46:43.908Z,9.75
2022-07-26T02:49:11.365Z,9.52
2022-07-26T02:51:38.740Z,10.07
2022-07-26T02:54:06.490Z,8.93
2022-07-26T02:56:34.092Z,10.10
2022-07-26T02:59:01.543Z,9.90
2022-07-26T03:01:29.789Z,9.48
2022-07-26T03:03:57.444Z,10.65
2022-07-26T03:06:24.835Z,10.90
2022-07-26T03:08:52.124Z,10.52
2022-07-26T03:11:19.412Z,10.05
2022-07-26T03:13:46.676Z,10.75
2022-07-26T03:16:14.029Z,11.85
2022-07-26T03:18:41.422Z,11.40
2022-07-26T03:21:08.878Z,12.07
2022-07-26T03:23:36.148Z,13.93
2022-07-26T03:26:03.827Z,12.63
2022-07-26T03:28:32.531Z,12.38
2022-07-26T03:31:00.075Z,13.70
2022-07-26T03:33:27.826Z,13.73
2022-07-26T03:35:55.142Z,13.77
2022-07-26T03:38:22.881Z,13.82
2022-07-26T03:40:50.172Z,13.82
2022-07-26T03:43:22.547Z,13.73
2022-07-26T03:45:50.948Z,13.93
2022-07-26T03:48:22.029Z,14.15
2022-07-26T03:50:49.664Z,14.60
2022-07-26T03:53:16.960Z,14.88
2022-07-26T03:56:02.640Z,14.02
2022-07-26T03:58:29.979Z,14.00
2022-07-26T04:00:57.258Z,14.27
2022-07-26T04:03:24.563Z,13.95
2022-07-26T04:05:52.824Z,14.77
2022-07-26T04:08:20.155Z,15.10
2022-07-26T04:10:51.474Z,14.63
2022-07-26T04:13:19.770Z,14.60
2022-07-26T04:15:47.575Z,13.68
2022-07-26T04:18:14.909Z,15.43
2022-07-26T04:20:42.921Z,14.98
2022-07-26T04:23:10.788Z,14.68
2022-07-26T04:25:41.046Z,13.93
2022-07-26T04:28:10.101Z,14.45
2022-07-26T04:30:38.016Z,12.93
2022-07-26T04:33:05.933Z,14.15
2022-07-26T04:35:33.867Z,13.18
2022-07-26T04:38:02.569Z,13.10
2022-07-26T04:40:33.603Z,12.43
2022-07-26T04:43:02.532Z,13.60
2022-07-26T04:45:30.665Z,12.73
2022-07-26T04:47:58.549Z,11.40
2022-07-26T04:50:28.236Z,10.35
2022-07-26T04:52:55.990Z,10.32
2022-07-26T04:55:24.299Z,9.40
2022-07-26T04:57:52.080Z,8.63
2022-07-26T05:00:24.396Z,8.20
2022-07-26T05:02:57.402Z,7.90
2022-07-26T05:05:26.959Z,6.75
2022-07-26T05:07:58.144Z,7.40
2022-07-26T05:10:37.149Z,7.30
2022-07-26T05:13:06.534Z,7.75
2022-07-26T05:15:35.830Z,8.07
2022-07-26T05:18:06.703Z,7.90
2022-07-26T05:20:35.142Z,7.53
2022-07-26T05:23:02.900Z,8.68
2022-07-26T05:25:30.229Z,7.18
2022-07-26T05:27:57.531Z,6.85
2022-07-26T05:30:24.894Z,6.63
2022-07-26T05:32:52.319Z,7.13
2022-07-26T05:35:19.675Z,6.65
2022-07-26T05:37:47.143Z,7.28
2022-07-26T05:40:29.734Z,7.32
2022-07-26T05:42:57.438Z,7.28
2022-07-26T05:45:24.757Z,6.90
2022-07-26T05:47:53.352Z,6.85
2022-07-26T05:50:20.704Z,7.57
2022-07-26T05:52:48.154Z,7.88
2022-07-26T05:55:15.505Z,7.10
2022-07-26T05:57:43.079Z,6.88
2022-07-26T06:00:10.973Z,7.82
2022-07-26T06:02:41.689Z,7.05
2022-07-26T06:05:09.454Z,7.03
2022-07-26T06:07:36.726Z,5.95
2022-07-26T06:10:05.279Z,6.38
2022-07-26T06:12:32.565Z,6.68
2022-07-26T06:14:59.863Z,6.03
2022-07-26T06:17:30.490Z,7.03
2022-07-26T06:19:59.141Z,6.40
2022-07-26T06:22:26.977Z,5.88
2022-07-26T06:24:54.367Z,5.35
2022-07-26T06:27:21.603Z,5.68
2022-07-26T06:29:49.378Z,4.95
2022-07-26T06:32:16.753Z,5.75
2022-07-26T06:34:44.002Z,5.22
2022-07-26T06:37:11.232Z,5.03
2022-07-26T06:39:38.562Z,4.82
2022-07-26T06:42:05.907Z,4.75
2022-07-26T06:44:33.171Z,4.78
2022-07-26T06:47:00.458Z,4.90
2022-07-26T06:49:27.809Z,5.18
2022-07-26T06:51:57.824Z,4.88
2022-07-26T06:54:25.191Z,4.63
2022-07-26T06:56:52.525Z,5.28
2022-07-26T06:59:19.840Z,4.60
2022-07-26T07:01:57.986Z,4.93
2022-07-26T07:04:30.871Z,4.10
2022-07-26T07:07:05.170Z,4.20
2022-07-26T07:09:34.088Z,4.60
2022-07-26T07:12:10.456Z,4.57
2022-07-26T07:14:39.561Z,4.60
2022-07-26T07:17:10.404Z,4.30
2022-07-26T07:19:40.720Z,4.32
2022-07-26T07:22:12.634Z,4.85
2022-07-26T07:24:40.819Z,4.25
2022-07-26T07:27:08.743Z,4.60
2022-07-26T07:29:38.681Z,3.85
2022-07-26T07:32:08.892Z,4.40
2022-07-26T07:34:45.951Z,3.63
2022-07-26T07:37:15.616Z,4.15
2022-07-26T07:39:43.111Z,3.83
2022-07-26T07:42:10.417Z,3.75
2022-07-26T07:44:37.701Z,3.83
2022-07-26T07:47:05.281Z,4.10
2022-07-26T07:49:32.762Z,3.83
2022-07-26T07:52:00.237Z,3.83
2022-07-26T07:54:27.664Z,4.10
2022-07-26T07:56:56.613Z,3.90
2022-07-26T07:59:24.479Z,4.07
2022-07-26T08:01:51.878Z,3.67
2022-07-26T08:04:19.448Z,4.75
2022-07-26T08:06:50.266Z,3.88
2022-07-26T08:09:19.321Z,3.90
2022-07-26T08:11:51.186Z,3.90
2022-07-26T08:14:19.473Z,4.18
2022-07-26T08:16:47.033Z,3.42
2022-07-26T08:19:15.413Z,3.75
2022-07-26T08:21:46.799Z,2.92
2022-07-26T08:24:14.379Z,3.60
2022-07-26T08:26:41.749Z,3.80
2022-07-26T08:29:09.037Z,3.53
2022-07-26T08:31:36.690Z,3.83
2022-07-26T08:34:04.325Z,3.03
2022-07-26T08:36:33.024Z,3.17
2022-07-26T08:39:01.722Z,3.30
2022-07-26T08:41:29.381Z,3.40
2022-07-26T08:44:05.997Z,3.47
2022-07-26T08:46:37.128Z,3.35
2022-07-26T08:49:10.423Z,3.55
2022-07-26T08:51:43.992Z,3.30
2022-07-26T08:54:13.642Z,3.30
2022-07-26T08:56:52.006Z,3.30
2022-07-26T08:59:22.305Z,3.95
2022-07-26T09:01:55.460Z,3.47
2022-07-26T09:04:41.679Z,2.95
2022-07-26T09:07:19.264Z,4.32
2022-07-26T09:09:57.219Z,3.47
2022-07-26T09:12:25.234Z,4.13
2022-07-26T09:14:53.879Z,3.40
2022-07-26T09:17:23.521Z,3.72
2022-07-26T09:20:09.687Z,3.53
2022-07-26T09:22:39.552Z,3.55
2022-07-26T09:25:23.899Z,3.22
2022-07-26T09:27:52.323Z,3.08
2022-07-26T09:30:20.589Z,3.28
2022-07-26T09:33:06.305Z,3.08
2022-07-26T09:35:52.154Z,2.65
2022-07-26T09:38:20.216Z,2.55
2022-07-26T09:40:51.143Z,2.42
2022-07-26T09:43:19.746Z,2.60
2022-07-26T09:46:05.380Z,3.00
2022-07-26T09:48:59.493Z,2.90
2022-07-26T09:51:36.804Z,2.95
2022-07-26T09:54:04.722Z,2.55
2022-07-26T09:56:49.678Z,3.10
2022-07-26T09:59:22.240Z,2.70
2022-07-26T10:01:51.784Z,2.58
2022-07-26T10:04:20.246Z,2.97
2022-07-26T10:06:48.231Z,2.70
2022-07-26T10:09:16.225Z,2.67
2022-07-26T10:11:58.348Z,2.80
2022-07-26T10:14:46.390Z,2.42
2022-07-26T10:17:31.345Z,2.30
2022-07-26T10:20:03.935Z,2.80
2022-07-26T10:22:41.671Z,2.42
2022-07-26T10:25:18.134Z,2.42
2022-07-26T10:27:49.491Z,3.10
2022-07-26T10:30:19.683Z,2.80
2022-07-26T10:33:02.387Z,2.95
2022-07-26T10:35:42.608Z,2.85
2022-07-26T10:38:27.594Z,2.10
2022-07-26T10:40:59.720Z,2.72
2022-07-26T10:43:44.007Z,2.42
2022-07-26T10:46:20.118Z,2.40
2022-07-26T10:49:05.287Z,2.55
2022-07-26T10:51:35.145Z,2.58
2022-07-26T10:54:06.786Z,2.30
2022-07-26T10:56:34.464Z,2.60
2022-07-26T10:59:02.971Z,2.53
2022-07-26T11:01:43.556Z,2.75
2022-07-26T11:04:21.129Z,2.40
2022-07-26T11:06:48.661Z,2.50
2022-07-26T11:09:16.285Z,2.85
2022-07-26T11:11:46.499Z,2.80
2022-07-26T11:14:17.328Z,2.47
2022-07-26T11:16:50.263Z,2.80
2022-07-26T11:19:24.986Z,3.13
2022-07-26T11:22:00.629Z,2.50
2022-07-26T11:24:28.801Z,2.40
2022-07-26T11:27:02.298Z,2.60
2022-07-26T11:29:38.651Z,2.60
2022-07-26T11:32:18.657Z,2.70
2022-07-26T11:34:46.982Z,2.42
2022-07-26T11:37:15.025Z,3.88
2022-07-26T11:39:42.322Z,3.35
2022-07-26T11:42:15.266Z,2.53
2022-07-26T11:44:47.135Z,2.63
2022-07-26T11:47:15.407Z,2.83
2022-07-26T11:50:01.153Z,2.67
2022-07-26T11:52:31.985Z,2.42
2022-07-26T11:54:59.875Z,3.25
2022-07-26T11:57:31.723Z,3.03
2022-07-26T12:00:00.945Z,3.20
2022-07-26T12:02:38.774Z,3.03
2022-07-26T12:05:22.204Z,2.88
2022-07-26T12:07:58.322Z,2.83
2022-07-26T12:10:26.188Z,3.17
2022-07-26T12:13:15.982Z,2.80
2022-07-26T12:15:52.024Z,3.20
2022-07-26T12:18:23.745Z,3.60
2022-07-26T12:21:07.001Z,2.92
2022-07-26T12:23:49.045Z,2.90
2022-07-26T12:26:25.181Z,3.03
2022-07-26T12:28:52.743Z,3.22
2022-07-26T12:31:24.173Z,3.25
2022-07-26T12:33:51.849Z,3.17
2022-07-26T12:36:27.626Z,2.75
2022-07-26T12:38:57.105Z,3.17
2022-07-26T12:41:34.578Z,3.65
2022-07-26T12:44:02.084Z,3.42
2022-07-26T12:46:33.544Z,3.55
2022-07-26T12:49:01.277Z,3.38
2022-07-26T12:51:28.910Z,3.20
2022-07-26T12:53:56.179Z,3.13
2022-07-26T12:56:23.553Z,3.08
2022-07-26T12:58:50.861Z,3.53
2022-07-26T13:01:18.200Z,3.53
2022-07-26T13:03:45.618Z,3.42
2022-07-26T13:06:12.979Z,3.10
2022-07-26T13:08:40.991Z,3.83
2022-07-26T13:11:08.221Z,3.33
2022-07-26T13:13:35.462Z,3.78
2022-07-26T13:16:06.693Z,3.95
2022-07-26T13:18:37.041Z,3.67
2022-07-26T13:21:04.432Z,3.25
2022-07-26T13:23:32.071Z,3.97
2022-07-26T13:26:02.361Z,3.33
2022-07-26T13:28:30.797Z,3.40
2022-07-26T13:30:58.215Z,2.95
2022-07-26T13:33:25.562Z,3.15
2022-07-26T13:35:52.831Z,3.05
2022-07-26T13:38:20.519Z,3.25
2022-07-26T13:40:47.751Z,3.38
2022-07-26T13:43:15.297Z,2.92
2022-07-26T13:45:42.667Z,2.80
2022-07-26T13:48:10.162Z,3.17
2022-07-26T13:50:37.457Z,3.35
2022-07-26T13:53:04.899Z,3.28
2022-07-26T13:55:32.197Z,3.30
2022-07-26T13:57:59.514Z,2.70
2022-07-26T14:00:28.670Z,2.90
2022-07-26T14:02:58.354Z,3.40
2022-07-26T14:05:27.061Z,4.13
2022-07-26T14:07:54.813Z,3.47
2022-07-26T14:10:23.632Z,3.47
2022-07-26T14:12:51.616Z,4.18
2022-07-26T14:15:22.731Z,3.50
2022-07-26T14:17:53.907Z,3.10
2022-07-26T14:20:22.182Z,3.25
2022-07-26T14:22:53.766Z,3.78
2022-07-26T14:25:25.658Z,3.53
2022-07-26T14:27:54.273Z,3.10
2022-07-26T14:30:22.863Z,3.45
2022-07-26T14:32:50.353Z,3.30
2022-07-26T14:35:17.740Z,3.47
2022-07-26T14:37:45.806Z,3.17
2022-07-26T14:40:15.905Z,2.97
2022-07-26T14:42:44.444Z,3.10
2022-07-26T14:45:12.912Z,3.10
2022-07-26T14:47:41.202Z,3.28
2022-07-26T14:50:10.490Z,3.47
2022-07-26T14:52:43.081Z,3.58
2022-07-26T14:55:11.686Z,3.50
2022-07-26T14:57:40.289Z,3.30
2022-07-26T15:00:10.517Z,3.45
2022-07-26T15:02:43.274Z,3.42
2022-07-26T15:05:12.088Z,3.23
2022-07-26T15:07:40.694Z,3.10
2022-07-26T15:10:10.488Z,3.30
2022-07-26T15:12:38.130Z,3.22
2022-07-26T15:15:06.817Z,3.35
2022-07-26T15:17:34.628Z,3.65
2022-07-26T15:20:02.658Z,3.20
2022-07-26T15:22:30.043Z,2.80
2022-07-26T15:24:57.462Z,2.80
2022-07-26T15:27:24.711Z,3.00
2022-07-26T15:29:52.056Z,2.50
2022-07-26T15:32:21.347Z,2.83
2022-07-26T15:34:49.035Z,2.78
2022-07-26T15:37:16.379Z,3.00
2022-07-26T15:39:43.709Z,2.67
2022-07-26T15:42:11.091Z,2.95
2022-07-26T15:44:42.697Z,2.92
2022-07-26T15:47:11.735Z,2.53
2022-07-26T15:49:40.812Z,3.15
2022-07-26T15:52:10.755Z,3.00
2022-07-26T15:54:38.398Z,2.85
2022-07-26T15:57:05.688Z,2.90
2022-07-26T15:59:33.002Z,2.28
2022-07-26T16:02:00.675Z,3.15
2022-07-26T16:04:28.046Z,2.97
2022-07-26T16:06:55.353Z,2.97
2022-07-26T16:09:22.716Z,2.60
2022-07-26T16:11:50.190Z,3.08
2022-07-26T16:14:18.473Z,2.67
2022-07-26T16:16:46.090Z,3.13
2022-07-26T16:19:14.093Z,2.72
2022-07-26T16:21:41.790Z,3.33
2022-07-26T16:24:09.288Z,2.80
2022-07-26T16:26:37.029Z,2.95
2022-07-26T16:29:05.526Z,3.13
2022-07-26T16:31:33.294Z,2.78
2022-07-26T16:34:00.732Z,2.67
2022-07-26T16:36:28.949Z,2.97
2022-07-26T16:38:56.288Z,2.85
2022-07-26T16:41:23.582Z,2.72
2022-07-26T16:43:50.932Z,2.72
2022-07-26T16:46:18.286Z,2.83
2022-07-26T16:48:45.657Z,2.70
2022-07-26T16:51:13.800Z,2.78
2022-07-26T16:53:41.806Z,2.80
2022-07-26T16:56:09.951Z,2.75
2022-07-26T16:58:37.907Z,2.53
2022-07-26T17:01:05.364Z,2.80
2022-07-26T17:03:32.670Z,2.40
2022-07-26T17:06:06.105Z,2.80
2022-07-26T17:08:34.397Z,2.58
2022-07-26T17:11:01.913Z,3.45
2022-07-26T17:13:29.301Z,2.60
2022-07-26T17:15:56.769Z,2.80
2022-07-26T17:18:24.438Z,2.90
2022-07-26T17:20:51.807Z,3.45
2022-07-26T17:23:19.710Z,2.67
2022-07-26T17:25:47.338Z,3.10
2022-07-26T17:28:14.653Z,2.60
2022-07-26T17:30:41.964Z,2.50
2022-07-26T17:33:09.367Z,2.15
2022-07-26T17:35:36.753Z,1.75
2022-07-26T17:38:05.046Z,1.95
2022-07-26T17:40:33.892Z,2.13
2022-07-26T17:43:01.261Z,1.80
2022-07-26T17:45:28.523Z,2.00
2022-07-26T17:47:55.794Z,2.05
2022-07-26T17:50:38.876Z,1.90
2022-07-26T17:53:06.372Z,2.17
2022-07-26T17:55:34.136Z,1.60
2022-07-26T17:58:01.490Z,2.08
2022-07-26T18:00:29.546Z,1.98
2022-07-26T18:02:58.058Z,2.08
2022-07-26T18:05:32.408Z,2.10
2022-07-26T18:08:01.680Z,1.92
2022-07-26T18:10:29.236Z,1.63
2022-07-26T18:12:56.602Z,1.88
2022-07-26T18:15:23.907Z,2.00
2022-07-26T18:17:51.259Z,3.78
2022-07-26T18:20:18.504Z,4.88
2022-07-26T18:22:50.163Z,2.80
2022-07-26T18:25:17.912Z,2.25
2022-07-26T18:27:45.192Z,2.65
2022-07-26T18:30:12.696Z,2.28
2022-07-26T18:32:39.923Z,2.20
2022-07-26T18:35:07.505Z,2.55
2022-07-26T18:37:34.753Z,2.33
2022-07-26T18:40:02.278Z,2.38
2022-07-26T18:42:29.533Z,3.13
2022-07-26T18:44:56.893Z,2.30
2022-07-26T18:47:24.331Z,2.80
2022-07-26T18:49:51.644Z,2.83
2022-07-26T18:52:28.806Z,2.92
2022-07-26T18:55:01.334Z,4.82
2022-07-26T18:57:28.573Z,6.40
2022-07-26T18:59:55.849Z,7.22
2022-07-26T19:02:23.144Z,6.47
2022-07-26T19:04:50.403Z,7.28
2022-07-26T19:07:17.683Z,6.18
2022-07-26T19:09:45.067Z,6.00
2022-07-26T19:12:12.325Z,5.80
2022-07-26T19:14:39.612Z,6.43
2022-07-26T19:17:10.097Z,5.45
2022-07-26T19:19:38.271Z,4.93
2022-07-26T19:22:06.128Z,4.57
2022-07-26T19:24:41.971Z,3.28
2022-07-26T19:27:09.693Z,2.53
2022-07-26T19:29:38.035Z,2.63
2022-07-26T19:32:06.385Z,2.67
2022-07-26T19:34:33.663Z,2.03
2022-07-26T19:37:00.911Z,2.17
2022-07-26T19:39:28.483Z,1.95
2022-07-26T19:41:55.916Z,1.92
2022-07-26T19:44:23.349Z,2.20
2022-07-26T19:46:55.562Z,2.55
2022-07-26T19:49:24.680Z,2.05
2022-07-26T19:51:51.988Z,2.13
2022-07-26T19:54:19.383Z,2.40
2022-07-26T19:56:46.695Z,2.00
2022-07-26T19:59:18.060Z,2.20
2022-07-26T20:01:50.154Z,2.10
2022-07-26T20:04:17.480Z,2.30
2022-07-26T20:06:44.892Z,2.30
2022-07-26T20:09:12.455Z,2.40
2022-07-26T20:11:39.996Z,2.20
2022-07-26T20:14:07.393Z,2.42
2022-07-26T20:16:34.818Z,2.08
2022-07-26T20:19:02.142Z,2.92
2022-07-26T20:21:29.433Z,2.58
2022-07-26T20:23:56.684Z,2.20
2022-07-26T20:26:24.203Z,2.50
2022-07-26T20:28:51.528Z,2.70
2022-07-26T20:31:18.838Z,3.40
2022-07-26T20:33:46.330Z,3.13
2022-07-26T20:36:13.627Z,2.80
2022-07-26T20:38:41.022Z,2.85
2022-07-26T20:41:08.553Z,3.22
2022-07-26T20:43:35.826Z,2.78
2022-07-26T20:46:03.412Z,2.70
2022-07-26T20:48:30.712Z,2.95
2022-07-26T20:50:58.257Z,2.65
2022-07-26T20:53:25.574Z,2.75
2022-07-26T20:55:53.314Z,3.03
2022-07-26T20:58:21.802Z,2.30
2022-07-26T21:00:49.129Z,3.08
2022-07-26T21:03:17.429Z,2.83
2022-07-26T21:05:45.276Z,3.20
2022-07-26T21:08:13.198Z,2.58
2022-07-26T21:10:40.511Z,2.58
2022-07-26T21:13:07.819Z,2.90
2022-07-26T21:15:35.607Z,2.15
2022-07-26T21:18:03.000Z,2.50
2022-07-26T21:20:31.340Z,2.60
2022-07-26T21:23:12.757Z,2.47
2022-07-26T21:25:43.581Z,3.33
2022-07-26T21:28:10.901Z,2.60
2022-07-26T21:30:38.243Z,2.15
2022-07-26T21:33:05.682Z,2.35
2022-07-26T21:35:33.177Z,2.33
2022-07-26T21:38:00.417Z,2.55
2022-07-26T21:40:27.874Z,2.60
2022-07-26T21:42:55.198Z,2.63
2022-07-26T21:45:22.523Z,2.50
2022-07-26T21:47:49.778Z,2.65
2022-07-26T21:50:17.080Z,2.90
2022-07-26T21:52:44.351Z,2.70
2022-07-26T21:55:15.538Z,2.88
2022-07-26T21:57:45.689Z,2.47
2022-07-26T22:00:14.877Z,2.72
2022-07-26T22:02:42.413Z,2.75
2022-07-26T22:05:28.420Z,2.55
2022-07-26T22:07:56.150Z,2.80
2022-07-26T22:10:23.753Z,2.70
2022-07-26T22:12:51.194Z,2.83
2022-07-26T22:15:18.648Z,2.78
2022-07-26T22:17:46.130Z,3.40
2022-07-26T22:20:13.659Z,3.05
2022-07-26T22:22:40.900Z,2.63
2022-07-26T22:25:08.724Z,3.10
2022-07-26T22:27:36.069Z,2.90
2022-07-26T22:30:04.553Z,2.67
2022-07-26T22:32:31.910Z,2.78
2022-07-26T22:34:59.283Z,2.47
2022-07-26T22:37:26.584Z,3.05
2022-07-26T22:39:53.826Z,3.03
2022-07-26T22:42:21.118Z,2.88
2022-07-26T22:44:48.359Z,2.90
2022-07-26T22:47:15.760Z,2.38
2022-07-26T22:49:43.120Z,2.40
2022-07-26T22:52:10.424Z,2.17
2022-07-26T22:54:37.772Z,2.78
2022-07-26T22:57:05.137Z,2.38
2022-07-26T22:59:32.473Z,2.60
2022-07-26T23:01:59.857Z,2.60
2022-07-26T23:04:27.211Z,2.47
2022-07-26T23:06:55.223Z,3.13
2022-07-26T23:09:22.564Z,3.00
2022-07-26T23:11:49.865Z,2.75
2022-07-26T23:14:17.121Z,3.00
2022-07-26T23:16:44.480Z,2.58
2022-07-26T23:19:12.021Z,2.75
2022-07-26T23:21:39.608Z,2.67
2022-07-26T23:24:07.298Z,2.70
2022-07-26T23:26:34.618Z,2.92
2022-07-26T23:29:01.894Z,2.33
2022-07-26T23:31:29.359Z,2.95
2022-07-26T23:33:56.764Z,2.60
2022-07-26T23:36:28.900Z,2.80
2022-07-26T23:38:58.021Z,2.70
2022-07-26T23:41:25.898Z,2.88
2022-07-26T23:43:54.456Z,2.58
2022-07-26T23:46:22.532Z,2.75
2022-07-26T23:48:50.472Z,2.78
2022-07-26T23:51:18.048Z,2.63
2022-07-26T23:53:45.617Z,2.38
2022-07-26T23:56:13.144Z,2.95
2022-07-26T23:58:40.546Z,2.95
